EDDSEGSS

Guest
Details From EDDS - Stuttgart
To EGSS - London Stansted
Flight Number -
Tags Generated
Created
Modified
Stats Distance 394 nm / 730 km
Max Altitude 0 ft / 0 m
Waypoints 3
Social Downloads 3
Likes 0
Share VATSIM

Download

Looking for another format? Having issues loading an existing format? Contact us
Advertisement - Login to hide

Notes

Generated

Route

EDDS R2317 EGSS

ID Type Via Altitude Latitude Longitude Leg Dist Tot Dist Heading (true) Name
O EDDS APT - 0 ft / 0 m 48.68573˚ 9.20013˚ - 0 nm - -
R2317 FIX - 0 ft / 0 m 51.87508˚ 0.21993˚ 393 nm 393 nm 302° / 296° -
O EGSS APT - 0 ft / 0 m 51.87508˚ 0.21993˚ 0 nm 393 nm 32° / 32° -

Altitude Profile

Advertisement - Login to hide

Weather


0- 5 10 15 20 25 30 35+ Temperature / ° C

Clouds and Precipitation
Forecast for 2017-12-14 18:00 UTC. Updated 2 hours ago

Ground ~20,000 ft ~40,000 ft Winds

EDDS

Details ICAO EDDS (STR)
Name Stuttgart
Region Germany - Civil
Timezone Europe/Berlin (UTC+1.0)
Stats Elevation 1,273 ft / 388 m (AMSL)
Location 48.689876° 9.221962°
Runways 1
Magnetic Variation 2.523° E

METAR

EDDS 141820Z 21009KT 180V240 CAVOK 05/01 Q0996 NOSIG

Decode

TAF

TAF TAF EDDS 141700Z 1418/1518 21008KT 9999 SCT040 TEMPO 1421/1503 SHRA BKN025CB

Decode

Departure Runways

ID Width Length Bearing (true) Bearing (mag) Surface Threshold Offset Overrun Length
07 148 ft / 45 m 10,950 ft / 3,337 m 73.96° 71.44° Concrete 981 ft / 299 m 157 ft / 48 m
25 148 ft / 45 m 10,950 ft / 3,337 m 253.99° 251.47° Concrete 0 ft / 0 m 157 ft / 48 m

EGSS

Details ICAO EGSS (STN)
Name London Stansted
Region United Kingdom
Timezone Europe/London (UTC+0.0)
Stats Elevation 348 ft / 106 m (AMSL)
Location 51.885097° 0.234962°
Runways 1
Magnetic Variation 0.362° W

METAR

EGSS 141820Z AUTO 22008KT 9999 NCD 01/M00 Q0987

Decode

TAF

TAF EGSS 141702Z 1418/1524 22009KT 9999 SCT030 TEMPO 1420/1511 7000 SHRA BKN008 PROB30 TEMPO 1500/1511 3000 SHRASN BKN004 BECMG 1507/1510 34010KT TEMPO 1511/1515 7000 SHRA BKN014 PROB30 TEMPO 1511/1521 35015G25KT PROB30 TEMPO 1515/1521 7000 SHRA BKN014

Decode

Destination Runways

ID Width Length Bearing (true) Bearing (mag) Surface Threshold Offset Overrun Length
04 151 ft / 46 m 10,011 ft / 3,052 m 42.79° 43.15° Asphalt 994 ft / 303 m 0 ft / 0 m
22 151 ft / 46 m 10,011 ft / 3,052 m 222.81° 223.17° Asphalt 0 ft / 0 m 0 ft / 0 m

Approach Navaids

Runway Type Ident Frequency Range Bearing (true) Bearing (mag) Slope Elevation
04 Localiser ISED 110.50 MHz 18 nm / 33 km 42.80° 43.16° - 348 ft / 106 m (AMSL)
04 Glidescope ISED 110.50 MHz 10 nm / 19 km 42.80° 43.16° 3.00° 348 ft / 106 m (AMSL)
04 DME ISED 110.50 MHz 18 nm / 33 km - - - 348 ft / 106 m (AMSL)
22 Localiser ISX 110.50 MHz 18 nm / 33 km 222.80° 223.16° - 348 ft / 106 m (AMSL)
22 Glidescope ISX 110.50 MHz 10 nm / 19 km 222.80° 223.16° 3.00° 348 ft / 106 m (AMSL)
22 DME ISX 110.50 MHz 18 nm / 33 km - - - 348 ft / 106 m (AMSL)

Popular Alternatives